Redmond, WA

3:54 AM PDT on September 01, 2015 (GMT -0700)
Sahalee | | Change Station
CLOSE
Current Station
Personal Weather Station
Location: Sammamish, WA
Elevation: 401 ft
Nearby Weather Stations

Elev 401 ft 47.63 °N, 122.03 °W | Updated 9 seconds ago

Overcast
Overcast
60.8 °F
Feels Like 60.8 °F
N
3.1
Wind Variable Wind from SE
Gusts 3.1 mph

Today
High -- | Low -- °F
--% Chance of Precip.
Yesterday
High -- | Low -- °F
Precip. -- in
6:26 AM 7:48 PM
Waning Gibbous, 90% visible
Pressure 29.88 in
Visibility 10.0 miles
Clouds Overcast 4300 ft
Dew Point 37 °F
Humidity 41%
Rainfall 0.00 in
Snow Depth Not available.
UV 0 out of 12
Pollen .30 out of 12
Air Quality Not available.
Flu Activity Not available.
METAR KBFI 010953Z 15009G17KT 10SM OVC043 19/12 A2988 RMK AO2 SLP119 T01890117
Pressure 29.88 in
Visibility 10.0 miles
Clouds Overcast 4300 ft
Dew Point 37 °F
Humidity 41%
Rainfall 0.00 in
Snow Depth Not available.
UV 0 out of 12
Pollen .30 out of 12
Air Quality Not available.
Flu Activity Not available.
METAR KBFI 010953Z 15009G17KT 10SM OVC043 19/12 A2988 RMK AO2 SLP119 T01890117

10-Day Weather Forecast

×

Almanac

Astronomy

Sep. 01, 2015 Rise Set
Actual Time
Civil Twilight
Nautical Twilight
Astronomical Twilight
Moon
Length of Visible Light
Length of Day
Tomorrow will be .
, % of the Moon is Illuminated

Today's Extremes

State Highs State Lows

Community

WunderPhotos

Upload Photos

1,851,501 photos uploaded!

WunderBlogs® & News

Nearby

Air Quality

  Air Quality AQ Index Pollutant
Not available.

Snow Depth

Station Depth Elevation

Earthquake Activity

City Distance Mag. Time & Date
Minimum magnitude displayed is 2.5.

Coastal Water Temperatures

Place Temperature

Stations

Nearby Weather Stations

Station Location Temp. Windchill Dew Point Humidity Wind Precip. Elev Updated Type